Time;durP1;ratioP1;P1;durP2;ratioP2;P2;SDS_P1;SDS_P2;PMS_P1;PMS_P2;Temp;Humidity;BMP_temperature;BMP_pressure;BME280_temperature;BME280_humidity;BME280_pressure;Samples;Min_cycle;Max_cycle;Signal;HPM_P1;HPM_P2
2021/01/10 00:01:47;;;;;;;20.40;11.02;;;;;;;9.66;nan;101946.94;4976975;28;99028;-72
2021/01/10 00:04:15;;;;;;;17.30;11.00;;;;;;;9.65;nan;101949.44;4977469;28;97004;-76
2021/01/10 00:06:44;;;;;;;17.88;10.85;;;;;;;9.63;nan;101954.59;4977317;28;97084;-73
2021/01/10 00:09:12;;;;;;;17.25;10.52;;;;;;;9.63;nan;101949.34;4973945;28;99343;-72
2021/01/10 00:11:41;;;;;;;16.42;10.88;;;;;;;9.66;nan;101949.56;4976515;28;99091;-73
2021/01/10 00:14:09;;;;;;;18.80;11.38;;;;;;;9.64;nan;101945.91;4977363;28;97940;-73
2021/01/10 00:16:38;;;;;;;17.27;10.32;;;;;;;9.63;nan;101946.72;4977834;28;97791;-73
2021/01/10 00:19:05;;;;;;;18.63;10.88;;;;;;;9.64;nan;101951.16;4975733;28;97968;-73
2021/01/10 00:21:34;;;;;;;18.50;11.57;;;;;;;9.63;nan;101948.41;4958311;28;97359;-72
2021/01/10 00:24:03;;;;;;;19.38;10.95;;;;;;;9.60;nan;101946.47;4976526;28;97127;-72
2021/01/10 00:26:33;;;;;;;18.95;10.80;;;;;;;9.58;nan;101952.41;4975980;28;97214;-72
2021/01/10 00:29:02;;;;;;;17.02;11.32;;;;;;;9.59;nan;101954.22;4976351;28;97863;-72
2021/01/10 00:31:30;;;;;;;21.70;11.57;;;;;;;9.59;nan;101952.53;4975870;28;97861;-73
2021/01/10 00:33:58;;;;;;;18.05;10.57;;;;;;;9.56;nan;101954.00;4958292;28;97643;-72
2021/01/10 00:36:32;;;;;;;18.35;10.98;;;;;;;9.51;nan;101958.88;4975517;28;96921;-73
2021/01/10 00:39:00;;;;;;;17.17;10.35;;;;;;;9.52;nan;101955.47;4957961;28;97866;-72
2021/01/10 00:41:28;;;;;;;17.80;10.20;;;;;;;9.57;nan;101964.59;4976973;28;97911;-72
2021/01/10 00:43:55;;;;;;;16.50;11.05;;;;;;;9.56;nan;101961.88;4958062;28;97508;-73
2021/01/10 00:46:23;;;;;;;17.08;11.23;;;;;;;9.59;nan;101967.34;4976158;28;97281;-72
2021/01/10 00:48:51;;;;;;;21.48;12.00;;;;;;;9.59;nan;101965.63;4956761;28;98951;-71
2021/01/10 00:51:19;;;;;;;17.95;11.38;;;;;;;9.61;nan;101969.28;4958155;28;99212;-73
2021/01/10 00:53:46;;;;;;;18.35;10.73;;;;;;;9.57;nan;101974.19;4958330;28;97181;-72
2021/01/10 00:56:15;;;;;;;20.05;11.13;;;;;;;9.56;nan;101978.50;4958650;28;97384;-73
2021/01/10 00:58:43;;;;;;;20.30;11.13;;;;;;;9.55;nan;101981.00;4958892;28;97301;-73
2021/01/10 01:01:11;;;;;;;18.77;11.32;;;;;;;9.55;nan;101984.56;4958807;28;98027;-72
2021/01/10 01:03:40;;;;;;;17.67;11.15;;;;;;;9.52;nan;101980.78;4959145;28;96809;-73
2021/01/10 01:06:11;;;;;;;18.48;10.82;;;;;;;9.50;nan;101983.31;4958651;28;97475;-71
2021/01/10 01:08:41;;;;;;;16.75;10.18;;;;;;;9.49;nan;101986.69;4958143;28;97776;-72
2021/01/10 01:11:09;;;;;;;17.33;10.13;;;;;;;9.50;nan;101982.38;4957103;28;100222;-72
2021/01/10 01:13:38;;;;;;;15.45;10.30;;;;;;;9.49;nan;101988.44;4942159;28;97782;-72
2021/01/10 01:16:08;;;;;;;18.02;10.48;;;;;;;9.49;nan;101991.06;4976903;28;97569;-72
2021/01/10 01:18:36;;;;;;;19.88;11.52;;;;;;;9.50;nan;101998.13;4958724;28;98832;-72
2021/01/10 01:21:03;;;;;;;20.58;11.60;;;;;;;9.50;nan;101999.03;4957596;28;100649;-72
2021/01/10 01:23:31;;;;;;;20.20;11.00;;;;;;;9.50;nan;102004.28;4957668;28;99093;-73
2021/01/10 01:25:59;;;;;;;18.88;11.43;;;;;;;9.50;nan;102000.75;4977036;28;97455;-73
2021/01/10 01:28:26;;;;;;;16.95;10.82;;;;;;;9.50;nan;102003.34;4974115;28;97876;-73
2021/01/10 01:30:55;;;;;;;19.85;11.27;;;;;;;9.48;nan;101998.00;4958282;28;98059;-72
2021/01/10 01:33:22;;;;;;;16.45;11.63;;;;;;;9.46;nan;102007.47;4975578;28;97199;-72
2021/01/10 01:35:50;;;;;;;17.70;9.95;;;;;;;9.46;nan;101996.97;4977972;28;97350;-72
2021/01/10 01:38:17;;;;;;;18.55;11.00;;;;;;;9.42;nan;102000.16;4977889;28;97902;-72
2021/01/10 01:40:45;;;;;;;19.60;11.43;;;;;;;9.43;nan;102011.56;4979215;28;99247;-71
2021/01/10 01:43:12;;;;;;;18.67;11.13;;;;;;;9.46;nan;102004.84;4957850;28;97694;-72
2021/01/10 01:45:39;;;;;;;17.98;10.77;;;;;;;9.45;nan;102016.09;4979543;28;97318;-72
2021/01/10 01:48:09;;;;;;;20.00;11.50;;;;;;;9.43;nan;102014.19;4979103;28;97989;-72
2021/01/10 01:50:37;;;;;;;15.75;10.63;;;;;;;9.44;nan;102014.28;4961274;28;97817;-72
2021/01/10 01:53:05;;;;;;;16.48;10.80;;;;;;;9.41;nan;102011.44;4980270;28;97098;-72
2021/01/10 01:55:32;;;;;;;18.08;10.93;;;;;;;9.38;nan;102003.31;4976208;28;98929;-73
2021/01/10 01:58:00;;;;;;;23.33;12.13;;;;;;;9.34;nan;102009.16;4960965;28;99091;-72
2021/01/10 02:00:28;;;;;;;20.05;11.45;;;;;;;9.33;nan;101999.44;4961023;28;98261;-72
2021/01/10 02:02:56;;;;;;;16.23;10.50;;;;;;;9.32;nan;102002.88;4961392;28;97565;-72
2021/01/10 02:05:29;;;;;;;18.02;11.02;;;;;;;9.31;nan;101993.16;4960758;28;96714;-72
2021/01/10 02:07:59;;;;;;;22.15;12.30;;;;;;;9.32;nan;102001.94;4961261;28;98557;-72
2021/01/10 02:10:30;;;;;;;19.90;11.15;;;;;;;9.31;nan;101998.41;4961898;28;97753;-72
2021/01/10 02:13:01;;;;;;;19.05;12.00;;;;;;;9.29;nan;102002.59;4979696;28;97692;-71
2021/01/10 02:15:31;;;;;;;20.13;11.02;;;;;;;9.23;nan;101994.28;4961056;28;97579;-71
2021/01/10 02:18:03;;;;;;;17.73;11.00;;;;;;;9.19;nan;101998.38;4978259;28;97261;-71
2021/01/10 02:20:34;;;;;;;19.20;11.13;;;;;;;9.14;nan;102001.44;4979354;28;99069;-71
2021/01/10 02:23:06;;;;;;;17.48;10.68;;;;;;;9.11;nan;102001.19;4960790;28;98137;-72
2021/01/10 02:25:36;;;;;;;18.85;10.48;;;;;;;9.10;nan;101988.88;4979288;28;96771;-72
2021/01/10 02:28:05;;;;;;;19.98;11.63;;;;;;;9.08;nan;101991.41;4978091;28;97890;-72
2021/01/10 02:30:34;;;;;;;19.95;11.32;;;;;;;9.05;nan;101993.75;4978598;28;97989;-72
2021/01/10 02:33:07;;;;;;;20.00;11.48;;;;;;;9.03;nan;101986.59;4978076;28;97722;-72
2021/01/10 02:35:36;;;;;;;18.30;11.00;;;;;;;9.01;nan;101986.44;4978440;28;97432;-72
2021/01/10 02:38:34;;;;;;;21.92;11.15;;;;;;;8.98;nan;101987.91;4978090;28;98055;-71
2021/01/10 02:41:13;;;;;;;18.65;11.77;;;;;;;8.95;nan;101993.84;4976124;28;98063;-71
2021/01/10 02:43:42;;;;;;;22.02;11.65;;;;;;;8.93;nan;101989.25;4978521;28;97788;-71
2021/01/10 02:46:12;;;;;;;19.73;11.25;;;;;;;8.91;nan;101998.69;4959554;28;97265;-71
2021/01/10 02:48:41;;;;;;;19.50;10.73;;;;;;;8.89;nan;101995.03;4976791;28;97395;-72
2021/01/10 02:51:13;;;;;;;18.90;11.60;;;;;;;8.90;nan;101996.88;4977459;28;98572;-71
2021/01/10 02:53:42;;;;;;;20.08;11.32;;;;;;;8.89;nan;101993.34;4978454;28;97777;-71
2021/01/10 02:56:10;;;;;;;18.45;11.82;;;;;;;8.91;nan;101998.69;4959975;28;97367;-72
2021/01/10 02:58:39;;;;;;;22.40;12.15;;;;;;;8.90;nan;101999.50;4959468;28;99621;-72
2021/01/10 03:01:08;;;;;;;19.38;12.52;;;;;;;8.85;nan;102001.75;4973466;28;98038;-71
2021/01/10 03:03:36;;;;;;;19.10;11.90;;;;;;;8.84;nan;102006.88;4976378;28;97236;-71
2021/01/10 03:06:05;;;;;;;22.63;12.32;;;;;;;8.80;nan;102005.72;4976249;28;97212;-71
2021/01/10 03:08:35;;;;;;;21.63;12.15;;;;;;;8.77;nan;102001.94;4958208;28;98893;-71
2021/01/10 03:11:04;;;;;;;21.02;12.73;;;;;;;8.72;nan;101998.06;4959587;28;99585;-72
2021/01/10 03:13:33;;;;;;;20.13;11.95;;;;;;;8.68;nan;102007.38;4977890;28;96956;-71
2021/01/10 03:16:03;;;;;;;15.90;10.65;;;;;;;8.66;nan;102014.19;4979077;28;97273;-72
2021/01/10 03:18:31;;;;;;;17.40;11.25;;;;;;;8.61;nan;102012.88;4958941;28;98622;-72
2021/01/10 03:20:59;;;;;;;21.98;12.50;;;;;;;8.57;nan;102017.78;4978655;28;99114;-71
2021/01/10 03:23:29;;;;;;;20.85;11.50;;;;;;;8.55;nan;102020.28;4978499;28;97754;-72
2021/01/10 03:25:58;;;;;;;20.73;11.80;;;;;;;8.54;nan;102020.16;4960010;28;97616;-72
2021/01/10 03:28:27;;;;;;;23.55;11.27;;;;;;;8.50;nan;102013.75;4959300;28;98353;-71
2021/01/10 03:30:55;;;;;;;20.77;12.23;;;;;;;8.51;nan;102018.19;4977189;28;98024;-71
2021/01/10 03:33:23;;;;;;;21.25;12.40;;;;;;;8.48;nan;102017.94;4976219;28;97974;-71
2021/01/10 03:35:51;;;;;;;24.00;13.57;;;;;;;8.46;nan;102014.28;4978988;28;98483;-73
2021/01/10 03:38:18;;;;;;;23.15;12.85;;;;;;;8.47;nan;102009.94;4978002;28;98139;-74
2021/01/10 03:40:46;;;;;;;21.48;12.48;;;;;;;8.46;nan;102002.91;4977929;28;97665;-73
2021/01/10 03:43:14;;;;;;;20.98;12.52;;;;;;;8.41;nan;102004.25;4976227;28;97789;-73
2021/01/10 03:45:41;;;;;;;20.60;11.18;;;;;;;8.40;nan;102002.41;4978179;28;97938;-70
2021/01/10 03:48:28;;;;;;;20.88;12.52;;;;;;;8.38;nan;102003.97;4978220;28;97868;-72
2021/01/10 03:50:55;;;;;;;21.00;11.80;;;;;;;8.36;nan;101998.63;4977444;28;99255;-71
2021/01/10 03:53:23;;;;;;;18.50;11.95;;;;;;;8.32;nan;102004.38;4959960;28;97391;-72
2021/01/10 03:55:50;;;;;;;21.10;11.73;;;;;;;8.27;nan;101989.09;4959819;28;97422;-71
2021/01/10 03:58:38;;;;;;;21.20;11.38;;;;;;;8.21;nan;101994.75;4977250;28;98157;-73
2021/01/10 04:01:06;;;;;;;20.25;11.43;;;;;;;8.19;nan;101997.19;4977271;28;98077;-72
2021/01/10 04:03:34;;;;;;;20.67;12.27;;;;;;;8.19;nan;101994.59;4960304;28;96859;-72
2021/01/10 04:06:02;;;;;;;21.20;12.18;;;;;;;8.17;nan;101996.16;4977953;28;98086;-72
2021/01/10 04:08:49;;;;;;;21.08;11.43;;;;;;;8.19;nan;101997.19;4976717;28;98051;-72
2021/01/10 04:11:16;;;;;;;19.90;12.10;;;;;;;8.18;nan;101989.22;4958323;28;99012;-72
2021/01/10 04:13:43;;;;;;;21.83;11.50;;;;;;;8.18;nan;101994.47;4976926;28;97444;-72
2021/01/10 04:16:12;;;;;;;18.88;11.02;;;;;;;8.17;nan;101992.66;4977172;28;96801;-72
2021/01/10 04:18:40;;;;;;;20.48;11.48;;;;;;;8.14;nan;101993.31;4958038;28;98947;-73
2021/01/10 04:21:08;;;;;;;20.50;12.82;;;;;;;8.12;nan;101989.63;4977521;28;97375;-72
2021/01/10 04:23:35;;;;;;;20.00;11.93;;;;;;;8.12;nan;101997.50;4959628;28;97219;-72
2021/01/10 04:26:04;;;;;;;17.75;11.07;;;;;;;8.10;nan;102000.78;4976111;28;96877;-72
2021/01/10 04:28:31;;;;;;;18.02;10.48;;;;;;;8.05;nan;101997.78;4958647;28;97165;-72
2021/01/10 04:31:00;;;;;;;21.02;11.75;;;;;;;8.02;nan;102000.16;4974588;28;97470;-73
2021/01/10 04:33:28;;;;;;;17.73;10.82;;;;;;;7.98;nan;102005.91;4957936;28;97865;-72
2021/01/10 04:35:57;;;;;;;16.45;10.45;;;;;;;8.00;nan;102011.28;4973522;28;97356;-72
2021/01/10 04:38:24;;;;;;;16.85;11.13;;;;;;;7.97;nan;102003.19;4956530;28;98125;-73
2021/01/10 04:40:52;;;;;;;21.15;12.10;;;;;;;7.97;nan;102009.31;4975069;28;98160;-73
2021/01/10 04:43:20;;;;;;;19.75;11.65;;;;;;;7.93;nan;102007.25;4973125;28;97618;-72
2021/01/10 04:45:47;;;;;;;23.02;12.02;;;;;;;7.92;nan;102013.25;4975762;28;97130;-73
2021/01/10 04:48:15;;;;;;;21.83;12.35;;;;;;;7.91;nan;102000.97;4975401;28;98281;-73
2021/01/10 04:50:43;;;;;;;20.08;11.50;;;;;;;7.89;nan;102004.25;4957316;28;97708;-72
2021/01/10 04:53:12;;;;;;;20.30;11.45;;;;;;;7.86;nan;102001.38;4972362;28;97458;-72
2021/01/10 04:55:41;;;;;;;20.35;11.38;;;;;;;7.84;nan;102002.94;4975141;28;97469;-73
2021/01/10 04:58:08;;;;;;;21.42;13.00;;;;;;;7.78;nan;102008.59;4974938;28;98109;-72
2021/01/10 05:00:36;;;;;;;16.90;11.25;;;;;;;7.77;nan;102004.13;4971554;28;99057;-73
2021/01/10 05:03:06;;;;;;;21.05;11.98;;;;;;;7.77;nan;102009.34;4949131;28;97452;-73
2021/01/10 05:05:35;;;;;;;20.27;11.48;;;;;;;7.74;nan;102006.50;4971017;28;98149;-72
2021/01/10 05:08:07;;;;;;;25.25;12.90;;;;;;;7.71;nan;101994.88;4973604;28;98988;-72
2021/01/10 05:10:36;;;;;;;24.33;11.85;;;;;;;7.66;nan;101994.50;4973756;28;98507;-72
2021/01/10 05:13:05;;;;;;;21.67;12.88;;;;;;;7.63;nan;101996.84;4978473;28;97763;-72
2021/01/10 05:15:32;;;;;;;25.40;13.40;;;;;;;7.63;nan;102001.13;4979222;28;96852;-72
2021/01/10 05:18:01;;;;;;;27.40;13.48;;;;;;;7.61;nan;102006.25;4978751;28;98041;-72
2021/01/10 05:20:34;;;;;;;21.83;13.25;;;;;;;7.56;nan;101997.09;4977326;28;98069;-72
2021/01/10 05:23:02;;;;;;;24.95;12.85;;;;;;;7.56;nan;101994.50;4978621;28;97178;-72
2021/01/10 05:25:30;;;;;;;22.13;11.95;;;;;;;7.55;nan;101996.97;4979433;28;97733;-72
2021/01/10 05:27:58;;;;;;;23.40;12.90;;;;;;;7.54;nan;101997.75;4926096;28;953986;-73
2021/01/10 05:30:28;;;;;;;23.63;12.75;;;;;;;7.52;nan;102000.25;4979584;28;98854;-73
2021/01/10 05:33:00;;;;;;;19.95;11.43;;;;;;;7.55;nan;102002.22;4979912;28;97573;-74
2021/01/10 05:35:27;;;;;;;25.33;13.85;;;;;;;7.54;nan;101995.13;4980665;28;97237;-72
2021/01/10 05:37:58;;;;;;;22.17;12.95;;;;;;;7.54;nan;101998.66;4976861;28;97683;-73
2021/01/10 05:40:30;;;;;;;24.17;12.73;;;;;;;7.49;nan;102000.00;4980058;28;98019;-73
2021/01/10 05:43:07;;;;;;;23.67;12.98;;;;;;;7.49;nan;101999.06;4961803;28;96814;-73
2021/01/10 05:45:36;;;;;;;21.90;12.10;;;;;;;7.51;nan;101998.44;4961348;28;96849;-72
2021/01/10 05:48:12;;;;;;;22.48;11.55;;;;;;;7.51;nan;101998.44;4961470;28;98088;-72
2021/01/10 05:50:43;;;;;;;17.35;10.88;;;;;;;7.53;nan;101996.88;4979427;28;98002;-72
2021/01/10 05:53:15;;;;;;;18.30;10.70;;;;;;;7.53;nan;101999.47;4978775;28;97604;-72
2021/01/10 05:55:56;;;;;;;18.67;10.90;;;;;;;7.53;nan;101990.72;4979349;28;97274;-73
2021/01/10 05:58:26;;;;;;;17.60;10.48;;;;;;;7.53;nan;101994.25;4961220;28;98371;-73
2021/01/10 06:00:54;;;;;;;16.98;11.85;;;;;;;7.53;nan;101998.56;4961720;28;98142;-73
2021/01/10 06:03:24;;;;;;;18.60;11.75;;;;;;;7.50;nan;101999.19;4961720;28;98521;-73
2021/01/10 06:05:58;;;;;;;18.13;11.57;;;;;;;7.44;nan;101996.09;4978311;28;97173;-72
2021/01/10 06:08:27;;;;;;;17.08;11.07;;;;;;;7.47;nan;102009.41;4979455;28;99856;-73
2021/01/10 06:10:55;;;;;;;15.95;10.52;;;;;;;7.48;nan;102011.22;4961446;28;99685;-72
2021/01/10 06:13:23;;;;;;;16.17;9.75;;;;;;;7.50;nan;102007.03;4960263;28;96733;-72
2021/01/10 06:15:53;;;;;;;12.73;9.25;;;;;;;7.46;nan;102002.34;4961353;28;97548;-72
2021/01/10 06:18:22;;;;;;;13.85;10.30;;;;;;;7.48;nan;102011.22;4961068;28;98103;-72
2021/01/10 06:20:54;;;;;;;11.40;9.00;;;;;;;7.44;nan;102013.47;4960515;28;102654;-72
2021/01/10 06:23:27;;;;;;;11.13;9.07;;;;;;;7.41;nan;102018.44;4976417;28;97256;-72
2021/01/10 06:25:56;;;;;;;11.23;8.82;;;;;;;7.43;nan;102014.22;4978591;28;97100;-73
2021/01/10 06:28:27;;;;;;;12.27;8.82;;;;;;;7.43;nan;102014.22;4978548;28;98424;-72
2021/01/10 06:30:59;;;;;;;10.70;9.25;;;;;;;7.41;nan;102016.72;4961926;28;98451;-72
2021/01/10 06:33:47;;;;;;;11.30;9.75;;;;;;;7.41;nan;102021.06;4977512;28;97952;-73
2021/01/10 06:36:15;;;;;;;11.43;9.07;;;;;;;7.39;nan;102023.50;4978675;28;97978;-72
2021/01/10 06:38:43;;;;;;;11.68;9.73;;;;;;;7.41;nan;102015.81;4960498;28;99998;-72
2021/01/10 06:41:25;;;;;;;11.40;8.60;;;;;;;7.42;nan;102018.56;4978335;28;100041;-72
2021/01/10 06:43:56;;;;;;;10.35;9.07;;;;;;;7.44;nan;102023.91;4978000;28;97778;-72
2021/01/10 06:46:24;;;;;;;12.38;9.25;;;;;;;7.37;nan;102024.19;4979241;28;97277;-72
2021/01/10 06:49:11;;;;;;;11.82;9.23;;;;;;;7.31;nan;102029.81;4977833;28;97783;-73
2021/01/10 06:51:39;;;;;;;10.75;9.10;;;;;;;7.27;nan;102026.78;4978355;28;99610;-72
2021/01/10 06:54:07;;;;;;;13.07;11.25;;;;;;;7.30;nan;102021.84;4977764;28;97518;-72
2021/01/10 06:56:34;;;;;;;12.68;10.45;;;;;;;7.28;nan;102019.06;4979224;28;97193;-72
2021/01/10 06:59:02;;;;;;;15.23;11.10;;;;;;;7.24;nan;102016.06;4978637;28;97563;-72
2021/01/10 07:02:02;;;;;;;12.02;10.02;;;;;;;7.19;nan;102018.28;4960561;28;98262;-72
2021/01/10 07:04:58;;;;;;;13.57;10.23;;;;;;;7.16;nan;102018.03;4977524;28;98255;-72
2021/01/10 07:07:44;;;;;;;11.20;9.75;;;;;;;7.14;nan;102027.44;4977512;28;96693;-72
2021/01/10 07:10:24;;;;;;;13.57;9.48;;;;;;;7.18;nan;102025.22;4958948;28;99936;-72
2021/01/10 07:12:52;;;;;;;11.32;9.45;;;;;;;7.21;nan;102026.28;4974759;28;98237;-73
2021/01/10 07:15:29;;;;;;;12.77;10.63;;;;;;;7.19;nan;102024.44;4956993;28;97730;-73
2021/01/10 07:18:08;;;;;;;13.52;10.95;;;;;;;7.16;nan;102033.69;4978014;28;97767;-73
2021/01/10 07:20:41;;;;;;;12.57;10.07;;;;;;;7.16;nan;102036.31;4959159;28;98974;-73
2021/01/10 07:23:28;;;;;;;14.18;9.48;;;;;;;7.13;nan;102034.34;4959638;28;97525;-73
2021/01/10 07:25:57;;;;;;;10.77;8.85;;;;;;;7.14;nan;102030.03;4978929;28;97277;-73
2021/01/10 07:28:41;;;;;;;11.68;9.80;;;;;;;7.16;nan;102037.25;4977659;28;96915;-73
2021/01/10 07:31:18;;;;;;;10.68;9.13;;;;;;;7.13;nan;102033.44;4959812;28;98016;-73
2021/01/10 07:33:49;;;;;;;11.18;9.70;;;;;;;7.07;nan;102032.91;4973343;28;98210;-73
2021/01/10 07:36:16;;;;;;;10.90;9.43;;;;;;;7.05;nan;102024.94;4978864;28;97510;-73
2021/01/10 07:38:44;;;;;;;11.77;9.25;;;;;;;7.05;nan;102024.03;4977269;28;97785;-73
2021/01/10 07:41:25;;;;;;;12.02;9.75;;;;;;;7.08;nan;102034.72;4977201;28;97873;-73
2021/01/10 07:43:53;;;;;;;19.48;13.50;;;;;;;7.08;nan;102029.50;4977542;28;98466;-73
2021/01/10 07:47:00;;;;;;;12.63;10.00;;;;;;;7.08;nan;102033.03;4959500;28;96743;-73
2021/01/10 07:49:31;;;;;;;12.75;9.80;;;;;;;7.11;nan;102040.22;4958780;28;97554;-72
2021/01/10 07:52:02;;;;;;;10.85;9.05;;;;;;;7.12;nan;102047.28;4975904;28;97654;-73
2021/01/10 07:54:54;;;;;;;12.65;10.52;;;;;;;7.15;nan;102039.72;4978025;28;97715;-72
2021/01/10 07:57:26;;;;;;;11.35;9.20;;;;;;;7.15;nan;102040.63;4976727;28;97060;-73
2021/01/10 08:00:14;;;;;;;14.40;10.43;;;;;;;7.17;nan;102035.53;4976653;28;97426;-73
2021/01/10 08:03:01;;;;;;;13.85;10.20;;;;;;;7.15;nan;102051.06;4978140;28;98117;-73
2021/01/10 08:05:33;;;;;;;16.77;10.80;;;;;;;7.16;nan;102047.69;4958830;28;97908;-73
2021/01/10 08:08:03;;;;;;;17.67;11.73;;;;;;;7.19;nan;102039.19;4976137;28;97727;-73
2021/01/10 08:10:45;;;;;;;16.50;10.90;;;;;;;7.17;nan;102046.00;4958517;28;97709;-73
2021/01/10 08:13:33;;;;;;;16.20;11.82;;;;;;;7.14;nan;102048.31;4978179;28;97864;-73
2021/01/10 08:16:02;;;;;;;20.10;12.65;;;;;;;7.17;nan;102056.44;4977238;28;99035;-73
2021/01/10 08:18:35;;;;;;;18.10;12.55;;;;;;;7.17;nan;102052.13;4974335;28;98631;-73
2021/01/10 08:21:06;;;;;;;20.42;12.68;;;;;;;7.19;nan;102049.63;4959752;28;98252;-72
2021/01/10 08:23:33;;;;;;;20.00;13.10;;;;;;;7.24;nan;102060.50;4976599;28;97310;-73
2021/01/10 08:26:09;;;;;;;19.38;13.90;;;;;;;7.23;nan;102062.19;4977629;28;100679;-73
2021/01/10 08:28:56;;;;;;;22.02;13.85;;;;;;;7.28;nan;102053.03;4961259;28;97318;-73
2021/01/10 08:31:25;;;;;;;21.23;13.75;;;;;;;7.34;nan;102053.56;4976581;28;97393;-74
2021/01/10 08:33:58;;;;;;;18.88;12.45;;;;;;;7.36;nan;102054.63;4975526;28;97959;-72
2021/01/10 08:36:27;;;;;;;21.98;13.48;;;;;;;7.43;nan;102053.44;4958641;28;99554;-72
2021/01/10 08:38:56;;;;;;;21.85;13.68;;;;;;;7.47;nan;102056.47;4976269;28;97902;-72
2021/01/10 08:41:45;;;;;;;23.83;12.88;;;;;;;7.48;nan;102060.88;4976956;28;97613;-72
2021/01/10 08:44:13;;;;;;;20.77;13.43;;;;;;;7.52;nan;102051.63;4976547;28;97905;-72
2021/01/10 08:46:42;;;;;;;29.98;16.20;;;;;;;7.55;nan;102047.59;4958944;28;98659;-72
2021/01/10 08:49:09;;;;;;;18.98;13.45;;;;;;;7.60;nan;102051.50;4975829;28;97643;-72
2021/01/10 08:51:39;;;;;;;24.73;13.93;;;;;;;7.63;nan;102051.75;4975648;28;98082;-72
2021/01/10 08:54:09;;;;;;;23.33;13.60;;;;;;;7.68;nan;102050.44;4976203;28;98060;-72
2021/01/10 08:56:37;;;;;;;53.95;28.42;;;;;;;7.73;nan;102046.53;4976083;28;98144;-71
2021/01/10 08:59:05;;;;;;;43.60;22.88;;;;;;;7.80;nan;102051.47;4974864;28;97329;-71
2021/01/10 09:01:33;;;;;;;27.67;15.40;;;;;;;7.81;nan;102048.06;4975846;28;97358;-72
2021/01/10 09:04:03;;;;;;;29.15;15.57;;;;;;;7.81;nan;102053.28;4957950;28;100227;-71
2021/01/10 09:06:49;;;;;;;29.27;15.68;;;;;;;7.83;nan;102053.41;4976127;28;101392;-71
2021/01/10 09:09:24;;;;;;;31.80;15.77;;;;;;;7.81;nan;102071.59;4974816;28;97692;-72
2021/01/10 09:12:00;;;;;;;31.42;15.20;;;;;;;7.89;nan;102067.03;4958335;28;97627;-72
2021/01/10 09:14:29;;;;;;;32.50;15.23;;;;;;;7.91;nan;102062.84;4975785;28;98104;-72
2021/01/10 09:16:58;;;;;;;32.83;16.10;;;;;;;7.96;nan;102059.81;4975412;28;98450;-73
2021/01/10 09:19:27;;;;;;;33.60;17.30;;;;;;;8.00;nan;102061.00;4953474;28;97837;-73
2021/01/10 09:21:55;;;;;;;33.13;15.82;;;;;;;8.01;nan;102068.97;4949633;28;98094;-72
2021/01/10 09:24:31;;;;;;;29.15;17.33;;;;;;;8.02;nan;102064.66;4956854;28;97719;-72
2021/01/10 09:27:12;;;;;;;36.67;18.50;;;;;;;8.07;nan;102060.72;4958750;28;101217;-73
2021/01/10 09:29:40;;;;;;;35.13;18.05;;;;;;;8.08;nan;102071.28;4956869;28;97857;-72
2021/01/10 09:32:09;;;;;;;32.28;16.67;;;;;;;8.10;nan;102067.09;4958927;28;96831;-72
2021/01/10 09:34:37;;;;;;;33.53;16.20;;;;;;;8.12;nan;102068.16;4958077;28;99280;-72
2021/01/10 09:37:07;;;;;;;40.75;17.50;;;;;;;8.17;nan;102072.06;4976019;28;98764;-72
2021/01/10 09:39:39;;;;;;;36.67;17.38;;;;;;;8.18;nan;102068.66;4973878;28;97793;-72
2021/01/10 09:42:07;;;;;;;35.17;17.30;;;;;;;8.17;nan;102064.22;4957712;28;97227;-72
2021/01/10 09:44:34;;;;;;;35.03;16.48;;;;;;;8.19;nan;102070.50;4957242;28;97956;-72
2021/01/10 09:47:33;;;;;;;35.83;17.15;;;;;;;8.25;nan;102066.59;4975020;28;99302;-72
2021/01/10 09:50:09;;;;;;;30.25;16.00;;;;;;;8.22;nan;102067.22;4956857;28;97270;-73
2021/01/10 09:52:47;;;;;;;29.58;16.55;;;;;;;8.23;nan;102071.66;4975575;28;97251;-73
2021/01/10 09:55:15;;;;;;;29.75;15.30;;;;;;;8.21;nan;102058.44;4975023;28;99410;-74
2021/01/10 09:57:43;;;;;;;27.02;15.73;;;;;;;8.20;nan;102072.34;4978855;28;97903;-73
2021/01/10 10:00:15;;;;;;;25.30;13.63;;;;;;;8.20;nan;102071.41;4962168;28;97834;-73
2021/01/10 10:02:43;;;;;;;29.95;16.67;;;;;;;8.19;nan;102073.09;4980483;28;98646;-71
2021/01/10 10:05:13;;;;;;;31.65;17.48;;;;;;;8.21;nan;102074.16;4977505;28;99034;-71
2021/01/10 10:07:42;;;;;;;28.33;17.00;;;;;;;8.25;nan;102066.59;4978902;28;99697;-70
2021/01/10 10:10:29;;;;;;;26.63;15.68;;;;;;;8.32;nan;102066.31;4978383;28;97027;-71
2021/01/10 10:12:58;;;;;;;65.95;33.65;;;;;;;8.34;nan;102054.28;4960513;28;98042;-71
2021/01/10 10:15:40;;;;;;;30.80;18.17;;;;;;;8.33;nan;102052.44;4958791;28;98478;-71
2021/01/10 10:18:08;;;;;;;25.75;15.32;;;;;;;8.35;nan;102056.09;4978046;28;97352;-70
2021/01/10 10:20:36;;;;;;;26.02;15.50;;;;;;;8.38;nan;102051.09;4960580;28;96881;-72
2021/01/10 10:23:08;;;;;;;25.83;14.77;;;;;;;8.39;nan;102059.09;4946744;28;96865;-70
2021/01/10 10:25:37;;;;;;;25.70;14.80;;;;;;;8.36;nan;102050.09;4959891;28;99290;-72
2021/01/10 10:28:05;;;;;;;27.00;15.13;;;;;;;8.35;nan;102041.31;4930689;28;99186;-72
2021/01/10 10:30:33;;;;;;;25.08;14.38;;;;;;;8.36;nan;102050.09;4976443;28;97007;-71
2021/01/10 10:33:02;;;;;;;31.55;17.33;;;;;;;8.35;nan;102056.09;4976200;28;97102;-71
2021/01/10 10:35:30;;;;;;;46.70;22.60;;;;;;;8.33;nan;102055.97;4977092;28;98626;-71
2021/01/10 10:37:58;;;;;;;39.15;19.23;;;;;;;8.32;nan;102050.63;4976175;28;99467;-71
2021/01/10 10:40:26;;;;;;;36.60;18.20;;;;;;;8.33;nan;102047.19;4958791;28;97710;-70
2021/01/10 10:42:54;;;;;;;34.25;18.45;;;;;;;8.34;nan;102046.44;4957587;28;97530;-72
2021/01/10 10:45:22;;;;;;;25.88;15.27;;;;;;;8.34;nan;102035.94;4976688;28;100171;-71
2021/01/10 10:47:49;;;;;;;32.22;17.65;;;;;;;8.32;nan;102035.78;4958463;28;98014;-72
2021/01/10 10:50:35;;;;;;;46.38;22.77;;;;;;;8.31;nan;102033.06;4975923;28;96820;-72
2021/01/10 10:53:05;;;;;;;32.92;18.05;;;;;;;8.34;nan;102028.09;4971633;28;98288;-73
2021/01/10 10:55:34;;;;;;;32.72;16.80;;;;;;;8.38;nan;102024.91;4967725;28;99339;-72
2021/01/10 10:58:02;;;;;;;31.95;17.30;;;;;;;8.36;nan;102032.66;4948416;28;97951;-72
2021/01/10 11:00:32;;;;;;;35.20;17.95;;;;;;;8.35;nan;102032.53;4975561;28;97586;-72
2021/01/10 11:03:00;;;;;;;32.28;17.60;;;;;;;8.40;nan;102028.56;4977302;28;97210;-73
2021/01/10 11:05:27;;;;;;;30.73;16.88;;;;;;;8.46;nan;102027.38;4960770;28;97992;-73
2021/01/10 11:07:55;;;;;;;31.25;16.52;;;;;;;8.53;nan;102023.53;4976460;28;98435;-72
2021/01/10 11:10:22;;;;;;;37.47;18.77;;;;;;;8.56;nan;102022.09;4976588;28;97541;-72
2021/01/10 11:12:50;;;;;;;31.52;19.08;;;;;;;8.55;nan;102021.97;4978135;28;98375;-72
2021/01/10 11:15:18;;;;;;;36.78;21.70;;;;;;;8.56;nan;102011.63;4978311;28;99318;-72
2021/01/10 11:17:48;;;;;;;32.65;18.45;;;;;;;8.57;nan;102008.22;4952081;28;101594;-72
2021/01/10 11:20:15;;;;;;;35.38;18.80;;;;;;;8.60;nan;102008.47;4975826;28;97966;-72
2021/01/10 11:22:58;;;;;;;31.20;17.15;;;;;;;8.65;nan;102008.84;4976736;28;97619;-71
2021/01/10 11:25:25;;;;;;;35.03;18.67;;;;;;;8.69;nan;102008.25;4946779;28;98427;-72
2021/01/10 11:27:53;;;;;;;31.75;17.75;;;;;;;8.67;nan;102000.28;4957727;28;98171;-72
2021/01/10 11:30:22;;;;;;;36.15;19.08;;;;;;;8.66;nan;101993.25;4973336;28;97657;-72
2021/01/10 11:32:52;;;;;;;35.00;18.88;;;;;;;8.69;nan;101989.94;4973486;28;97592;-72
2021/01/10 11:35:20;;;;;;;36.13;18.15;;;;;;;8.73;nan;101984.16;4956840;28;99451;-72
2021/01/10 11:37:49;;;;;;;34.45;18.88;;;;;;;8.75;nan;101995.66;4965532;28;99319;-71
2021/01/10 11:40:17;;;;;;;32.80;16.50;;;;;;;8.79;nan;101995.13;4970676;28;97396;-72
2021/01/10 11:42:48;;;;;;;33.60;17.50;;;;;;;8.79;nan;101987.28;4975686;28;97790;-72
2021/01/10 11:45:16;;;;;;;29.70;16.90;;;;;;;8.81;nan;101989.19;4960621;28;97951;-69
2021/01/10 11:47:44;;;;;;;48.17;16.65;;;;;;;8.82;nan;101980.56;4954630;28;99381;-70
2021/01/10 11:50:12;;;;;;;30.77;16.33;;;;;;;8.86;nan;101992.19;4973004;28;97406;-70
2021/01/10 11:52:39;;;;;;;33.97;18.20;;;;;;;8.87;nan;101984.44;4973707;28;97912;-70